Tuesday, November 21, 2017, 10:45 AM EST
Back to Local

KMLT, Millinocket Municipal Airport

Location: Millinocket, ME, United States Lat: 45.65
Local Time: 10:45 AM EST (15:45 GMT) Lon: -68.7
Time Zone: US/Eastern Elev: 406 ft

Show me the last for .
Show Decoded

2017-11-21 09:53 METAR KMLT 211453Z AUTO 10SM CLR M04/M11 A3004 RMK AO2 SLP183 T10391106 58006
                 TSNO =
2017-11-21 08:53 METAR KMLT 211353Z AUTO VRB03KT 10SM OVC043 M07/M11 A3005 RMK AO2 SLP187
                 T10671111 TSNO =
2017-11-21 07:53 METAR KMLT 211253Z AUTO VRB03KT 10SM OVC043 M08/M12 A3005 RMK AO2 SLP190
                 T10831122 TSNO =
2017-11-21 06:53 METAR KMLT 211153Z AUTO 00000KT 10SM FEW085 BKN100 M09/M13 A3005 RMK AO2 SLP190
                 T10891128 11083 21100 51005 TSNO =
2017-11-21 06:28 METAR KMLT 211128Z AUTO 00000KT 10SM SCT029 OVC100 M09/M13 A3005 RMK AO2
                 T10941133 TSNO =
2017-11-21 06:20 METAR KMLT 211120Z AUTO 00000KT 10SM BKN029 BKN100 M09/M13 A3005 RMK AO2
                 T10941133 TSNO =
2017-11-21 05:53 METAR KMLT 211053Z AUTO 00000KT 10SM FEW100 M10/M13 A3005 RMK AO2 SLP190
                 T11001133 TSNO =
2017-11-21 04:53 METAR KMLT 210953Z AUTO VRB03KT 10SM CLR M10/M14 A3004 RMK AO2 SLP187 T11001139
                 TSNO =
2017-11-21 03:53 METAR KMLT 210853Z AUTO 25007KT 10SM CLR M08/M14 A3004 RMK AO2 SLP184 T10831139
                 51020 TSNO =
2017-11-21 02:53 METAR KMLT 210753Z AUTO VRB05KT 10SM CLR M08/M14 A3002 RMK AO2 SLP179 T10831144
                 TSNO =
2017-11-21 01:53 METAR KMLT 210653Z AUTO 29012G18KT 10SM CLR M09/M15 A3001 RMK AO2 SLP174
                 T10891150 TSNO =
2017-11-21 00:53 METAR KMLT 210553Z AUTO 29011G18KT 10SM CLR M09/M15 A2998 RMK AO2 SLP164
                 T10891150 11083 21094 51018 TSNO =
2017-11-20 23:53 METAR KMLT 210453Z AUTO 29014G25KT 10SM CLR M09/M15 A2997 RMK AO2 SLP159
                 T10891150 410111094 TSNO =
2017-11-20 22:53 METAR KMLT 210353Z AUTO 30009G16KT 10SM CLR M09/M15 A2994 RMK AO2 SLP152
                 T10941150 TSNO =
2017-11-20 21:53 METAR KMLT 210253Z AUTO 29013G24KT 10SM CLR M09/M15 A2992 RMK AO2 PK WND
                 30031/0157 SLP145 T10891150 51020 TSNO =
2017-11-20 20:53 METAR KMLT 210153Z AUTO 29017G29KT 10SM CLR M09/M16 A2990 RMK AO2 PK WND
                 31030/0130 SLP137 T10891156 TSNO =
2017-11-20 19:53 METAR KMLT 210053Z AUTO 30015G35KT 10SM CLR M09/M16 A2989 RMK AO2 PK WND
                 30035/0050 SLP135 T10891161 TSNO =
2017-11-20 18:53 METAR KMLT 202353Z AUTO 29015G29KT 10SM BKN031 M08/M16 A2987 RMK AO2 PK WND
                 30030/2258 SLP125 60000 T10831161 11028 21083 53034 TSNO =
2017-11-20 17:53 METAR KMLT 202253Z AUTO 29016G25KT 10SM CLR M07/M15 A2982 RMK AO2 SLP110
                 T10721150 TSNO =
2017-11-20 16:53 METAR KMLT 202153Z AUTO 31017G27KT 10SM BKN039 OVC046 M07/M14 A2980 RMK AO2 PK
                 WND 32027/2153 SLP103 T10671139 TSNO =
2017-11-20 15:53 METAR KMLT 202053Z AUTO 31012G20KT 10SM OVC038 M06/M13 A2977 RMK AO2 SLP090
                 60000 T10561128 53026 TSNO =
2017-11-20 14:53 METAR KMLT 201953Z AUTO 27011G20KT 10SM BKN044 M05/M14 A2973 RMK AO2 PK WND
                 26026/1919 SLP078 T10501144 TSNO =
2017-11-20 13:53 METAR KMLT 201853Z AUTO 28011G23KT 10SM SCT042 M04/M13 A2970 RMK AO2 PK WND
                 26026/1827 SNB1758E07 SLP067 P0000 T10391128 TSNO =
2017-11-20 12:53 METAR KMLT 201753Z AUTO 26012G23KT 10SM BKN036 OVC046 M03/M11 A2969 RMK AO2 PK
                 WND 28027/1720 SLP063 60000 T10331111 11017 21039 53010 TSNO =
2017-11-20 11:53 METAR KMLT 201653Z AUTO 28016G24KT 10SM FEW042 BKN049 BKN070 M03/M12 A2967 RMK
                 AO2 SNB08E18 SLP058 P0000 T10281117 TSNO =
2017-11-20 10:53 METAR KMLT 201553Z AUTO 27013G22KT 10SM FEW043 OVC050 M02/M09 A2966 RMK AO2
                 SNB06E21 SLP055 P0000 T10221094 TSNO =

Support USWX by starting your Amazon purchase here.